Time,TemperatureF,DewpointF,PressureIn,WindDirection,WindDirectionDegrees,WindSpeedMPH,WindSpeedGustMPH,Humidity,HourlyPrecipIn,Conditions,Clouds,dailyrainin,SolarRadiationWatts/m^2,SoftwareType,DateUTC
2013-04-21 00:01:00,36.2,22.0,30.27,SSW,210,2.0,3.0,56,0.00,,,0.00,0,LWC V2.00 B727,2013-04-21 06:01:00,
2013-04-21 00:06:00,36.2,22.0,30.27,SSW,210,0.0,2.0,56,0.00,,,0.00,0,LWC V2.00 B727,2013-04-21 06:06:00,
2013-04-21 00:11:00,35.9,22.2,30.27,SSW,209,0.0,1.0,57,0.00,,,0.00,0,LWC V2.00 B727,2013-04-21 06:11:00,
2013-04-21 00:16:00,35.4,22.1,30.27,SSW,209,0.0,2.0,58,0.00,,,0.00,0,LWC V2.00 B727,2013-04-21 06:16:00,
2013-04-21 00:21:00,35.0,22.1,30.28,SSW,203,1.0,2.0,59,0.00,,,0.00,0,LWC V2.00 B727,2013-04-21 06:21:00,
2013-04-21 00:26:00,34.4,22.0,30.27,SSW,200,0.0,2.0,60,0.00,,,0.00,0,LWC V2.00 B727,2013-04-21 06:26:00,
2013-04-21 00:31:00,34.1,21.7,30.27,SSW,198,1.0,2.0,60,0.00,,,0.00,0,LWC V2.00 B727,2013-04-21 06:31:00,
2013-04-21 00:36:00,33.9,21.5,30.27,SSW,197,4.0,5.0,60,0.00,,,0.00,0,LWC V2.00 B727,2013-04-21 06:36:00,
2013-04-21 00:41:00,34.4,22.0,30.28,SSW,200,1.0,4.0,60,0.00,,,0.00,0,LWC V2.00 B727,2013-04-21 06:41:00,
2013-04-21 00:46:00,34.8,22.0,30.28,SW,214,4.0,4.0,59,0.00,,,0.00,0,LWC V2.00 B727,2013-04-21 06:46:00,
2013-04-21 00:51:00,35.3,22.0,30.28,SSW,212,2.0,3.0,58,0.00,,,0.00,0,LWC V2.00 B727,2013-04-21 06:51:00,
2013-04-21 00:56:00,35.6,21.9,30.28,SW,232,6.0,6.0,57,0.00,,,0.00,0,LWC V2.00 B727,2013-04-21 06:56:00,
2013-04-21 01:01:00,36.0,22.3,30.28,SSW,201,1.0,5.0,57,0.00,,,0.00,0,LWC V2.00 B727,2013-04-21 07:01:00,
2013-04-21 01:06:00,36.2,22.0,30.28,SSW,203,0.0,2.0,56,0.00,,,0.00,0,LWC V2.00 B727,2013-04-21 07:06:00,
2013-04-21 01:11:00,36.3,22.1,30.28,SSW,203,2.0,2.0,56,0.00,,,0.00,0,LWC V2.00 B727,2013-04-21 07:11:00,
2013-04-21 01:16:00,36.3,22.1,30.28,SSW,203,1.0,3.0,56,0.00,,,0.00,0,LWC V2.00 B727,2013-04-21 07:16:00,
2013-04-21 01:21:00,36.2,22.0,30.28,WSW,242,0.0,5.0,56,0.00,,,0.00,0,LWC V2.00 B727,2013-04-21 07:21:00,
2013-04-21 01:26:00,36.1,21.9,30.29,WSW,242,0.0,2.0,56,0.00,,,0.00,0,LWC V2.00 B727,2013-04-21 07:26:00,
2013-04-21 01:31:00,36.0,21.4,30.28,WSW,242,0.0,0.0,55,0.00,,,0.00,0,LWC V2.00 B727,2013-04-21 07:31:00,
2013-04-21 01:36:00,35.6,21.5,30.28,WSW,242,0.0,0.0,56,0.00,,,0.00,0,LWC V2.00 B727,2013-04-21 07:36:00,
2013-04-21 01:41:00,35.1,20.6,30.29,WSW,242,0.0,0.0,55,0.00,,,0.00,0,LWC V2.00 B727,2013-04-21 07:41:00,
2013-04-21 01:46:00,34.1,20.9,30.28,WSW,242,0.0,0.0,58,0.00,,,0.00,0,LWC V2.00 B727,2013-04-21 07:46:00,
2013-04-21 01:51:00,33.3,20.5,30.29,WSW,242,0.0,0.0,59,0.00,,,0.00,0,LWC V2.00 B727,2013-04-21 07:51:00,
2013-04-21 01:56:00,32.7,20.4,30.29,WSW,242,0.0,0.0,60,0.00,,,0.00,0,LWC V2.00 B727,2013-04-21 07:56:00,
2013-04-21 02:01:00,32.1,19.8,30.28,WSW,242,0.0,0.0,60,0.00,,,0.00,0,LWC V2.00 B727,2013-04-21 08:01:00,
2013-04-21 02:06:00,31.4,19.9,30.28,WSW,242,0.0,0.0,62,0.00,,,0.00,0,LWC V2.00 B727,2013-04-21 08:06:00,
2013-04-21 02:11:00,30.8,19.3,30.28,WSW,242,0.0,0.0,62,0.00,,,0.00,0,LWC V2.00 B727,2013-04-21 08:11:00,
2013-04-21 02:16:00,30.2,19.1,30.28,WSW,242,0.0,0.0,63,0.00,,,0.00,0,LWC V2.00 B727,2013-04-21 08:16:00,
2013-04-21 02:21:00,29.9,18.9,30.28,WSW,242,0.0,0.0,63,0.00,,,0.00,0,LWC V2.00 B727,2013-04-21 08:21:00,
2013-04-21 02:26:00,29.3,18.7,30.29,WSW,242,0.0,0.0,64,0.00,,,0.00,0,LWC V2.00 B727,2013-04-21 08:26:00,
2013-04-21 02:31:00,28.7,18.8,30.29,WSW,242,0.0,0.0,66,0.00,,,0.00,0,LWC V2.00 B727,2013-04-21 08:31:00,
2013-04-21 02:36:00,28.3,18.4,30.29,WSW,242,0.0,0.0,66,0.00,,,0.00,0,LWC V2.00 B727,2013-04-21 08:36:00,
2013-04-21 02:41:00,28.1,18.2,30.29,WSW,242,0.0,0.0,66,0.00,,,0.00,0,LWC V2.00 B727,2013-04-21 08:41:00,
2013-04-21 02:46:00,27.9,18.4,30.29,WSW,242,0.0,0.0,67,0.00,,,0.00,0,LWC V2.00 B727,2013-04-21 08:46:00,
2013-04-21 02:51:00,27.7,18.2,30.29,WSW,242,0.0,0.0,67,0.00,,,0.00,0,LWC V2.00 B727,2013-04-21 08:51:00,
2013-04-21 02:56:00,27.6,18.8,30.29,WSW,242,1.0,3.0,69,0.00,,,0.00,0,LWC V2.00 B727,2013-04-21 08:56:00,
2013-04-21 03:01:00,28.1,19.3,30.29,WSW,242,2.0,2.0,69,0.00,,,0.00,0,LWC V2.00 B727,2013-04-21 09:01:00,
2013-04-21 03:06:00,28.9,19.7,30.30,WSW,240,0.0,0.0,68,0.00,,,0.00,0,LWC V2.00 B727,2013-04-21 09:06:00,
2013-04-21 03:11:00,29.4,19.5,30.30,WSW,240,0.0,0.0,66,0.00,,,0.00,0,LWC V2.00 B727,2013-04-21 09:11:00,
2013-04-21 03:16:00,29.5,19.6,30.30,WSW,241,0.0,0.0,66,0.00,,,0.00,0,LWC V2.00 B727,2013-04-21 09:16:00,
2013-04-21 03:21:00,29.5,19.2,30.30,WSW,241,0.0,0.0,65,0.00,,,0.00,0,LWC V2.00 B727,2013-04-21 09:21:00,
2013-04-21 03:26:00,29.4,19.1,30.30,WSW,241,0.0,0.0,65,0.00,,,0.00,0,LWC V2.00 B727,2013-04-21 09:26:00,
2013-04-21 03:31:00,29.1,18.8,30.30,WSW,240,0.0,0.0,65,0.00,,,0.00,0,LWC V2.00 B727,2013-04-21 09:31:00,
2013-04-21 03:36:00,28.7,18.8,30.30,WSW,240,0.0,0.0,66,0.00,,,0.00,0,LWC V2.00 B727,2013-04-21 09:36:00,
2013-04-21 03:41:00,28.5,19.0,30.30,WSW,240,0.0,0.0,67,0.00,,,0.00,0,LWC V2.00 B727,2013-04-21 09:41:00,
2013-04-21 03:46:00,28.3,18.8,30.30,WSW,240,0.0,0.0,67,0.00,,,0.00,0,LWC V2.00 B727,2013-04-21 09:46:00,
2013-04-21 03:51:00,28.0,18.8,30.31,WSW,240,0.0,0.0,68,0.00,,,0.00,0,LWC V2.00 B727,2013-04-21 09:51:00,
2013-04-21 03:56:00,27.8,18.6,30.31,WSW,240,0.0,0.0,68,0.00,,,0.00,0,LWC V2.00 B727,2013-04-21 09:56:00,
2013-04-21 04:01:00,27.6,18.1,30.31,WSW,240,0.0,0.0,67,0.00,,,0.00,0,LWC V2.00 B727,2013-04-21 10:01:00,
2013-04-21 04:06:00,27.3,17.8,30.31,WSW,240,0.0,0.0,67,0.00,,,0.00,0,LWC V2.00 B727,2013-04-21 10:06:00,
2013-04-21 04:11:00,27.0,17.5,30.31,WSW,240,1.0,2.0,67,0.00,,,0.00,0,LWC V2.00 B727,2013-04-21 10:11:00,
2013-04-21 04:16:00,26.3,17.2,30.31,WSW,240,0.0,0.0,68,0.00,,,0.00,0,LWC V2.00 B727,2013-04-21 10:16:00,
2013-04-21 04:21:00,26.1,17.0,30.31,WSW,240,0.0,0.0,68,0.00,,,0.00,0,LWC V2.00 B727,2013-04-21 10:21:00,
2013-04-21 04:26:00,25.8,17.1,30.31,WSW,240,0.0,0.0,69,0.00,,,0.00,0,LWC V2.00 B727,2013-04-21 10:26:00,
2013-04-21 04:31:00,25.5,16.8,30.31,WSW,240,0.0,0.0,69,0.00,,,0.00,0,LWC V2.00 B727,2013-04-21 10:31:00,
2013-04-21 04:36:00,25.2,16.5,30.31,WSW,240,0.0,0.0,69,0.00,,,0.00,0,LWC V2.00 B727,2013-04-21 10:36:00,
2013-04-21 04:41:00,24.9,16.5,30.32,WSW,240,0.0,0.0,70,0.00,,,0.00,0,LWC V2.00 B727,2013-04-21 10:41:00,
2013-04-21 04:46:00,24.6,16.2,30.32,WSW,240,0.0,0.0,70,0.00,,,0.00,0,LWC V2.00 B727,2013-04-21 10:46:00,
2013-04-21 04:51:00,24.4,16.7,30.32,WSW,240,0.0,1.0,72,0.00,,,0.00,0,LWC V2.00 B727,2013-04-21 10:51:00,
2013-04-21 04:56:00,24.2,17.1,30.32,WSW,240,0.0,1.0,74,0.00,,,0.00,0,LWC V2.00 B727,2013-04-21 10:56:00,
2013-04-21 05:01:00,24.0,16.6,30.33,WSW,240,0.0,1.0,73,0.00,,,0.00,0,LWC V2.00 B727,2013-04-21 11:01:00,
2013-04-21 05:06:00,23.9,16.5,30.33,WSW,240,0.0,0.0,73,0.00,,,0.00,0,LWC V2.00 B727,2013-04-21 11:06:00,
2013-04-21 05:11:00,23.8,16.4,30.33,WSW,240,0.0,0.0,73,0.00,,,0.00,0,LWC V2.00 B727,2013-04-21 11:11:00,
2013-04-21 05:16:00,23.9,17.2,30.33,WSW,240,0.0,1.0,75,0.00,,,0.00,0,LWC V2.00 B727,2013-04-21 11:16:00,
2013-04-21 05:21:00,23.9,17.2,30.33,WSW,240,0.0,0.0,75,0.00,,,0.00,0,LWC V2.00 B727,2013-04-21 11:21:00,
2013-04-21 05:27:00,23.9,17.2,30.33,WSW,240,0.0,0.0,75,0.00,,,0.00,0,LWC V2.00 B727,2013-04-21 11:27:00,
2013-04-21 05:32:00,24.0,17.6,30.34,WSW,240,0.0,0.0,76,0.00,,,0.00,0,LWC V2.00 B727,2013-04-21 11:32:00,
2013-04-21 05:37:00,24.2,18.0,30.34,WSW,240,0.0,0.0,77,0.00,,,0.00,0,LWC V2.00 B727,2013-04-21 11:37:00,
2013-04-21 05:42:00,24.3,18.1,30.34,WSW,240,0.0,0.0,77,0.00,,,0.00,0,LWC V2.00 B727,2013-04-21 11:42:00,
2013-04-21 05:47:00,24.4,18.2,30.34,WSW,240,0.0,0.0,77,0.00,,,0.00,0,LWC V2.00 B727,2013-04-21 11:47:00,
2013-04-21 05:52:00,24.7,18.8,30.34,WSW,240,0.0,0.0,78,0.00,,,0.00,0,LWC V2.00 B727,2013-04-21 11:52:00,
2013-04-21 05:57:00,24.9,18.7,30.34,WSW,240,0.0,0.0,77,0.00,,,0.00,0,LWC V2.00 B727,2013-04-21 11:57:00,
2013-04-21 06:02:00,25.0,18.5,30.34,WSW,240,0.0,1.0,76,0.00,,,0.00,0,LWC V2.00 B727,2013-04-21 12:02:00,
2013-04-21 06:07:00,25.2,18.7,30.35,WSW,240,0.0,0.0,76,0.00,,,0.00,0,LWC V2.00 B727,2013-04-21 12:07:00,
2013-04-21 06:12:00,25.3,18.8,30.35,WSW,240,0.0,0.0,76,0.00,,,0.00,0,LWC V2.00 B727,2013-04-21 12:12:00,
2013-04-21 06:17:00,25.5,19.0,30.35,WSW,241,0.0,3.0,76,0.00,,,0.00,0,LWC V2.00 B727,2013-04-21 12:17:00,
2013-04-21 06:22:00,25.7,18.9,30.35,WSW,241,0.0,0.0,75,0.00,,,0.00,0,LWC V2.00 B727,2013-04-21 12:22:00,
2013-04-21 06:27:00,25.9,19.1,30.36,WSW,241,0.0,1.0,75,0.00,,,0.00,7,LWC V2.00 B727,2013-04-21 12:27:00,
2013-04-21 06:32:00,26.1,19.0,30.36,WSW,241,0.0,2.0,74,0.00,,,0.00,11,LWC V2.00 B727,2013-04-21 12:32:00,
2013-04-21 06:37:00,26.2,19.1,30.36,WSW,241,0.0,0.0,74,0.00,,,0.00,14,LWC V2.00 B727,2013-04-21 12:37:00,
2013-04-21 06:42:00,26.5,19.4,30.36,WSW,240,0.0,1.0,74,0.00,,,0.00,18,LWC V2.00 B727,2013-04-21 12:42:00,
2013-04-21 06:47:00,26.8,19.3,30.36,WSW,240,0.0,0.0,73,0.00,,,0.00,21,LWC V2.00 B727,2013-04-21 12:47:00,
2013-04-21 06:52:00,27.1,19.6,30.37,WSW,240,0.0,0.0,73,0.00,,,0.00,26,LWC V2.00 B727,2013-04-21 12:52:00,
2013-04-21 06:57:00,27.4,19.9,30.37,WSW,240,0.0,0.0,73,0.00,,,0.00,37,LWC V2.00 B727,2013-04-21 12:57:00,
2013-04-21 07:02:00,27.8,20.3,30.37,WSW,240,0.0,2.0,73,0.00,,,0.00,49,LWC V2.00 B727,2013-04-21 13:02:00,
2013-04-21 07:07:00,28.1,20.6,30.38,WSW,240,0.0,0.0,73,0.00,,,0.00,60,LWC V2.00 B727,2013-04-21 13:07:00,
2013-04-21 07:12:00,28.7,20.8,30.38,WSW,240,0.0,0.0,72,0.00,,,0.00,77,LWC V2.00 B727,2013-04-21 13:12:00,
2013-04-21 07:17:00,29.2,21.3,30.38,WSW,240,0.0,0.0,72,0.00,,,0.00,98,LWC V2.00 B727,2013-04-21 13:17:00,
2013-04-21 07:22:00,29.6,22.0,30.39,WSW,240,0.0,0.0,73,0.00,,,0.00,118,LWC V2.00 B727,2013-04-21 13:22:00,
2013-04-21 07:27:00,30.2,22.3,30.39,WSW,240,0.0,0.0,72,0.00,,,0.00,142,LWC V2.00 B727,2013-04-21 13:27:00,
2013-04-21 07:32:00,30.9,23.0,30.39,WSW,241,0.0,1.0,72,0.00,,,0.00,167,LWC V2.00 B727,2013-04-21 13:32:00,
2013-04-21 07:37:00,31.9,23.6,30.39,WSW,241,0.0,0.0,71,0.00,,,0.00,190,LWC V2.00 B727,2013-04-21 13:37:00,
2013-04-21 07:42:00,32.7,24.4,30.39,WSW,241,0.0,0.0,71,0.00,,,0.00,213,LWC V2.00 B727,2013-04-21 13:42:00,
2013-04-21 07:47:00,33.7,25.0,30.39,WSW,241,0.0,1.0,70,0.00,,,0.00,234,LWC V2.00 B727,2013-04-21 13:47:00,
2013-04-21 07:52:00,35.0,24.8,30.39,WSW,241,0.0,1.0,66,0.00,,,0.00,255,LWC V2.00 B727,2013-04-21 13:52:00,
2013-04-21 07:57:00,36.2,25.2,30.39,WSW,241,0.0,1.0,64,0.00,,,0.00,271,LWC V2.00 B727,2013-04-21 13:57:00,
2013-04-21 08:02:00,37.4,26.0,30.39,WSW,241,3.0,3.0,63,0.00,,,0.00,294,LWC V2.00 B727,2013-04-21 14:02:00,
2013-04-21 08:07:00,38.5,25.0,30.39,NW,306,2.0,3.0,58,0.00,,,0.00,313,LWC V2.00 B727,2013-04-21 14:07:00,
2013-04-21 08:12:00,39.5,24.2,30.39,NW,323,2.0,5.0,54,0.00,,,0.00,334,LWC V2.00 B727,2013-04-21 14:12:00,
2013-04-21 08:17:00,40.3,24.5,30.40,NNW,327,4.0,4.0,53,0.00,,,0.00,352,LWC V2.00 B727,2013-04-21 14:17:00,
2013-04-21 08:22:00,40.9,25.1,30.40,NNW,327,2.0,3.0,53,0.00,,,0.00,371,LWC V2.00 B727,2013-04-21 14:22:00,
2013-04-21 08:27:00,41.6,25.3,30.40,NNW,333,1.0,4.0,52,0.00,,,0.00,390,LWC V2.00 B727,2013-04-21 14:27:00,
2013-04-21 08:32:00,42.3,24.5,30.40,NNW,340,1.0,6.0,49,0.00,,,0.00,411,LWC V2.00 B727,2013-04-21 14:32:00,
2013-04-21 08:37:00,42.8,25.0,30.40,North,5,3.0,5.0,49,0.00,,,0.00,429,LWC V2.00 B727,2013-04-21 14:37:00,
2013-04-21 08:42:00,43.3,24.9,30.40,North,0,0.0,2.0,48,0.00,,,0.00,450,LWC V2.00 B727,2013-04-21 14:42:00,
2013-04-21 08:47:00,43.8,24.4,30.40,North,5,4.0,6.0,46,0.00,,,0.00,471,LWC V2.00 B727,2013-04-21 14:47:00,
2013-04-21 08:52:00,44.1,24.7,30.40,NNE,15,0.0,7.0,46,0.00,,,0.00,490,LWC V2.00 B727,2013-04-21 14:52:00,
2013-04-21 08:57:00,44.4,24.9,30.40,North,355,4.0,5.0,46,0.00,,,0.00,504,LWC V2.00 B727,2013-04-21 14:57:00,
2013-04-21 09:02:00,44.8,25.3,30.40,North,0,4.0,7.0,46,0.00,,,0.00,524,LWC V2.00 B727,2013-04-21 15:02:00,
2013-04-21 09:07:00,45.1,25.0,30.40,NNE,13,1.0,3.0,45,0.00,,,0.00,543,LWC V2.00 B727,2013-04-21 15:07:00,
2013-04-21 09:12:00,45.7,25.0,30.40,NNE,32,3.0,4.0,44,0.00,,,0.00,561,LWC V2.00 B727,2013-04-21 15:12:00,
2013-04-21 09:17:00,46.2,25.0,30.40,WSW,242,3.0,6.0,43,0.00,,,0.00,578,LWC V2.00 B727,2013-04-21 15:17:00,
2013-04-21 09:22:00,46.7,26.0,30.40,WNW,284,2.0,7.0,44,0.00,,,0.00,598,LWC V2.00 B727,2013-04-21 15:22:00,
2013-04-21 09:27:00,47.3,25.4,30.40,NNE,25,3.0,4.0,42,0.00,,,0.00,617,LWC V2.00 B727,2013-04-21 15:27:00,
2013-04-21 09:32:00,47.7,26.3,30.40,SSW,211,0.0,3.0,43,0.00,,,0.00,631,LWC V2.00 B727,2013-04-21 15:32:00,
2013-04-21 09:37:00,48.3,25.7,30.40,WSW,247,5.0,6.0,41,0.00,,,0.00,649,LWC V2.00 B727,2013-04-21 15:37:00,
2013-04-21 09:42:00,48.7,26.1,30.40,WSW,250,2.0,5.0,41,0.00,,,0.00,666,LWC V2.00 B727,2013-04-21 15:42:00,
2013-04-21 09:47:00,49.1,26.4,30.40,SW,233,5.0,5.0,41,0.00,,,0.00,682,LWC V2.00 B727,2013-04-21 15:47:00,
2013-04-21 09:52:00,49.2,24.7,30.40,NNW,341,5.0,10.0,38,0.00,,,0.00,698,LWC V2.00 B727,2013-04-21 15:52:00,
2013-04-21 09:57:00,49.2,25.3,30.40,North,11,1.0,5.0,39,0.00,,,0.00,710,LWC V2.00 B727,2013-04-21 15:57:00,
2013-04-21 10:02:00,49.1,25.2,30.40,NW,312,2.0,6.0,39,0.00,,,0.00,729,LWC V2.00 B727,2013-04-21 16:02:00,
2013-04-21 10:07:00,49.4,26.1,30.40,SW,236,2.0,3.0,40,0.00,,,0.00,744,LWC V2.00 B727,2013-04-21 16:07:00,
2013-04-21 10:12:00,49.9,27.1,30.40,North,355,4.0,4.0,41,0.00,,,0.00,759,LWC V2.00 B727,2013-04-21 16:12:00,
2013-04-21 10:17:00,50.3,26.9,30.40,NNE,24,5.0,5.0,40,0.00,,,0.00,775,LWC V2.00 B727,2013-04-21 16:17:00,
2013-04-21 10:22:00,50.6,27.8,30.40,NNW,336,4.0,6.0,41,0.00,,,0.00,789,LWC V2.00 B727,2013-04-21 16:22:00,
2013-04-21 10:27:00,51.0,26.3,30.40,North,355,3.0,6.0,38,0.00,,,0.00,802,LWC V2.00 B727,2013-04-21 16:27:00,
2013-04-21 10:32:00,51.0,25.7,30.40,North,0,3.0,5.0,37,0.00,,,0.00,817,LWC V2.00 B727,2013-04-21 16:32:00,
2013-04-21 10:37:00,51.1,27.0,30.39,NNW,346,6.0,6.0,39,0.00,,,0.00,831,LWC V2.00 B727,2013-04-21 16:37:00,
2013-04-21 10:42:00,51.1,26.4,30.39,NNW,345,7.0,7.0,38,0.00,,,0.00,840,LWC V2.00 B727,2013-04-21 16:42:00,
2013-04-21 10:47:00,51.2,27.7,30.39,NNW,344,0.0,7.0,40,0.00,,,0.00,854,LWC V2.00 B727,2013-04-21 16:47:00,
2013-04-21 10:52:00,51.7,28.8,30.39,NNE,15,1.0,4.0,41,0.00,,,0.00,868,LWC V2.00 B727,2013-04-21 16:52:00,
2013-04-21 10:57:00,52.1,29.1,30.39,North,0,4.0,4.0,41,0.00,,,0.00,879,LWC V2.00 B727,2013-04-21 16:57:00,
2013-04-21 11:02:00,52.4,27.5,30.39,WNW,302,5.0,6.0,38,0.00,,,0.00,891,LWC V2.00 B727,2013-04-21 17:02:00,
2013-04-21 11:07:00,52.8,27.9,30.39,North,355,2.0,6.0,38,0.00,,,0.00,902,LWC V2.00 B727,2013-04-21 17:07:00,
2013-04-21 11:12:00,53.2,26.9,30.39,SW,222,2.0,6.0,36,0.00,,,0.00,914,LWC V2.00 B727,2013-04-21 17:12:00,
2013-04-21 11:17:00,53.6,27.3,30.39,WNW,296,4.0,5.0,36,0.00,,,0.00,923,LWC V2.00 B727,2013-04-21 17:17:00,
2013-04-21 11:22:00,53.9,26.2,30.38,North,355,4.0,7.0,34,0.00,,,0.00,933,LWC V2.00 B727,2013-04-21 17:22:00,
2013-04-21 11:24:00,53.9,27.6,30.39,WNW,283,1.0,5.0,36,0.00,,,0.00,937,LWC V2.00 B727,2013-04-21 17:24:00,
2013-04-21 11:29:00,54.2,26.5,30.38,NNE,18,1.0,8.0,34,0.00,,,0.00,947,LWC V2.00 B727,2013-04-21 17:29:00,
2013-04-21 11:34:00,54.3,24.3,30.38,North,0,2.0,4.0,31,0.00,,,0.00,958,LWC V2.00 B727,2013-04-21 17:34:00,
2013-04-21 11:39:00,54.4,25.9,30.38,NNW,341,2.0,6.0,33,0.00,,,0.00,965,LWC V2.00 B727,2013-04-21 17:39:00,
2013-04-21 11:44:00,54.7,26.2,30.37,SW,232,1.0,8.0,33,0.00,,,0.00,974,LWC V2.00 B727,2013-04-21 17:44:00,
2013-04-21 11:49:00,55.3,27.4,30.37,NNW,340,4.0,5.0,34,0.00,,,0.00,977,LWC V2.00 B727,2013-04-21 17:49:00,
2013-04-21 11:54:00,55.3,26.7,30.37,NW,309,6.0,12.0,33,0.00,,,0.00,981,LWC V2.00 B727,2013-04-21 17:54:00,
2013-04-21 11:59:00,55.0,27.2,30.37,NNW,330,0.0,13.0,34,0.00,,,0.00,986,LWC V2.00 B727,2013-04-21 17:59:00,
2013-04-21 12:04:00,55.3,26.7,30.37,SW,227,0.0,5.0,33,0.00,,,0.00,997,LWC V2.00 B727,2013-04-21 18:04:00,
2013-04-21 12:09:00,55.8,29.3,30.36,WNW,302,2.0,6.0,36,0.00,,,0.00,1000,LWC V2.00 B727,2013-04-21 18:09:00,
2013-04-21 12:14:00,56.4,28.4,30.36,NNW,342,2.0,6.0,34,0.00,,,0.00,1013,LWC V2.00 B727,2013-04-21 18:14:00,
2013-04-21 12:19:00,56.9,28.1,30.36,SW,233,5.0,10.0,33,0.00,,,0.00,1014,LWC V2.00 B727,2013-04-21 18:19:00,
2013-04-21 12:24:00,57.2,26.1,30.36,WSW,248,4.0,8.0,30,0.00,,,0.00,1020,LWC V2.00 B727,2013-04-21 18:24:00,
2013-04-21 12:29:00,57.4,27.8,30.35,WSW,245,5.0,9.0,32,0.00,,,0.00,1021,LWC V2.00 B727,2013-04-21 18:29:00,
2013-04-21 12:34:00,57.5,24.7,30.35,NNW,338,5.0,11.0,28,0.00,,,0.00,1023,LWC V2.00 B727,2013-04-21 18:34:00,
2013-04-21 12:39:00,56.7,26.4,30.35,NW,323,0.0,3.0,31,0.00,,,0.00,1023,LWC V2.00 B727,2013-04-21 18:39:00,
2013-04-21 12:44:00,56.9,27.4,30.35,SW,234,3.0,9.0,32,0.00,,,0.00,1030,LWC V2.00 B727,2013-04-21 18:44:00,
2013-04-21 12:49:00,57.5,26.3,30.34,North,5,2.0,8.0,30,0.00,,,0.00,1032,LWC V2.00 B727,2013-04-21 18:49:00,
2013-04-21 12:54:00,57.6,25.6,30.34,WSW,244,6.0,7.0,29,0.00,,,0.00,1035,LWC V2.00 B727,2013-04-21 18:54:00,
2013-04-21 12:59:00,58.1,24.3,30.34,SW,232,0.0,0.0,27,0.00,,,0.00,1035,LWC V2.00 B727,2013-04-21 18:59:00,
2013-04-21 13:04:00,58.7,23.9,30.34,NW,304,1.0,4.0,26,0.00,,,0.00,1039,LWC V2.00 B727,2013-04-21 19:04:00,
2013-04-21 13:09:00,59.3,25.3,30.33,WSW,250,6.0,6.0,27,0.00,,,0.00,1037,LWC V2.00 B727,2013-04-21 19:09:00,
2013-04-21 13:14:00,60.2,24.3,30.33,South,186,2.0,3.0,25,0.00,,,0.00,1035,LWC V2.00 B727,2013-04-21 19:14:00,
2013-04-21 13:19:00,60.4,25.4,30.33,WSW,242,7.0,7.0,26,0.00,,,0.00,1037,LWC V2.00 B727,2013-04-21 19:19:00,
2013-04-21 13:24:00,60.9,24.8,30.33,WNW,294,0.0,4.0,25,0.00,,,0.00,1032,LWC V2.00 B727,2013-04-21 19:24:00,
2013-04-21 13:29:00,60.6,20.5,30.33,WSW,237,3.0,7.0,21,0.00,,,0.00,1034,LWC V2.00 B727,2013-04-21 19:29:00,
2013-04-21 13:34:00,60.5,22.5,30.33,SSW,197,4.0,7.0,23,0.00,,,0.00,1030,LWC V2.00 B727,2013-04-21 19:34:00,
2013-04-21 13:39:00,60.6,22.6,30.32,South,175,2.0,3.0,23,0.00,,,0.00,1028,LWC V2.00 B727,2013-04-21 19:39:00,
2013-04-21 13:44:00,60.9,21.8,30.32,SSW,207,3.0,10.0,22,0.00,,,0.00,1025,LWC V2.00 B727,2013-04-21 19:44:00,
2013-04-21 13:49:00,61.0,20.8,30.32,West,265,0.0,4.0,21,0.00,,,0.00,1020,LWC V2.00 B727,2013-04-21 19:49:00,
2013-04-21 13:54:00,61.1,19.7,30.32,SW,233,8.0,10.0,20,0.00,,,0.00,1014,LWC V2.00 B727,2013-04-21 19:54:00,
2013-04-21 13:59:00,61.1,23.0,30.32,West,267,2.0,2.0,23,0.00,,,0.00,1009,LWC V2.00 B727,2013-04-21 19:59:00,
2013-04-21 14:04:00,61.7,24.5,30.31,NNW,333,4.0,4.0,24,0.00,,,0.00,1002,LWC V2.00 B727,2013-04-21 20:04:00,
2013-04-21 14:09:00,61.8,22.6,30.31,SW,221,6.0,6.0,22,0.00,,,0.00,991,LWC V2.00 B727,2013-04-21 20:09:00,
2013-04-21 14:14:00,62.2,22.9,30.31,SW,222,2.0,6.0,22,0.00,,,0.00,990,LWC V2.00 B727,2013-04-21 20:14:00,
2013-04-21 14:19:00,62.8,24.5,30.31,ENE,62,1.0,5.0,23,0.00,,,0.00,983,LWC V2.00 B727,2013-04-21 20:19:00,
2013-04-21 14:24:00,63.0,24.6,30.31,SW,236,5.0,6.0,23,0.00,,,0.00,977,LWC V2.00 B727,2013-04-21 20:24:00,
2013-04-21 14:29:00,63.3,24.9,30.30,SW,214,0.0,1.0,23,0.00,,,0.00,967,LWC V2.00 B727,2013-04-21 20:29:00,
2013-04-21 14:34:00,62.7,22.2,30.30,WNW,282,0.0,9.0,21,0.00,,,0.00,960,LWC V2.00 B727,2013-04-21 20:34:00,
2013-04-21 14:39:00,63.1,22.5,30.30,North,11,1.0,9.0,21,0.00,,,0.00,951,LWC V2.00 B727,2013-04-21 20:39:00,
2013-04-21 14:44:00,63.1,22.5,30.30,NE,41,3.0,9.0,21,0.00,,,0.00,939,LWC V2.00 B727,2013-04-21 20:44:00,
2013-04-21 14:49:00,63.1,21.4,30.30,WSW,252,8.0,8.0,20,0.00,,,0.00,930,LWC V2.00 B727,2013-04-21 20:49:00,
2013-04-21 14:54:00,62.6,19.8,30.29,SW,218,5.0,15.0,19,0.00,,,0.00,923,LWC V2.00 B727,2013-04-21 20:54:00,
2013-04-21 14:59:00,62.5,20.9,30.29,WSW,238,6.0,13.0,20,0.00,,,0.00,907,LWC V2.00 B727,2013-04-21 20:59:00,
2013-04-21 15:04:00,62.7,19.9,30.29,NNE,24,7.0,11.0,19,0.00,,,0.00,900,LWC V2.00 B727,2013-04-21 21:04:00,
2013-04-21 15:09:00,62.0,20.5,30.28,SSW,212,2.0,11.0,20,0.00,,,0.00,882,LWC V2.00 B727,2013-04-21 21:09:00,
2013-04-21 15:14:00,62.0,21.6,30.28,WNW,295,2.0,4.0,21,0.00,,,0.00,879,LWC V2.00 B727,2013-04-21 21:14:00,
2013-04-21 15:19:00,62.1,19.4,30.27,NE,38,7.0,10.0,19,0.00,,,0.00,872,LWC V2.00 B727,2013-04-21 21:19:00,
2013-04-21 15:24:00,61.6,19.0,30.26,North,355,6.0,10.0,19,0.00,,,0.00,879,LWC V2.00 B727,2013-04-21 21:24:00,
2013-04-21 15:29:00,62.0,21.6,30.26,SSW,203,8.0,10.0,21,0.00,,,0.00,858,LWC V2.00 B727,2013-04-21 21:29:00,
2013-04-21 15:34:00,63.0,21.3,30.27,SSW,196,2.0,10.0,20,0.00,,,0.00,868,LWC V2.00 B727,2013-04-21 21:34:00,
2013-04-21 15:39:00,62.7,21.1,30.26,WSW,252,8.0,8.0,20,0.00,,,0.00,868,LWC V2.00 B727,2013-04-21 21:39:00,
2013-04-21 15:44:00,63.3,22.7,30.26,NW,325,3.0,8.0,21,0.00,,,0.00,840,LWC V2.00 B727,2013-04-21 21:44:00,
2013-04-21 15:49:00,63.5,21.7,30.27,West,271,7.0,8.0,20,0.00,,,0.00,780,LWC V2.00 B727,2013-04-21 21:49:00,
2013-04-21 15:54:00,62.9,20.0,30.26,NNE,22,0.0,7.0,19,0.00,,,0.00,847,LWC V2.00 B727,2013-04-21 21:54:00,
2013-04-21 15:59:00,63.1,22.5,30.26,North,355,1.0,6.0,21,0.00,,,0.00,809,LWC V2.00 B727,2013-04-21 21:59:00,
2013-04-21 16:04:00,63.7,20.7,30.25,WSW,248,6.0,13.0,19,0.00,,,0.00,779,LWC V2.00 B727,2013-04-21 22:04:00,
2013-04-21 16:09:00,63.1,22.5,30.25,WSW,244,7.0,11.0,21,0.00,,,0.00,729,LWC V2.00 B727,2013-04-21 22:09:00,
2013-04-21 16:14:00,63.0,21.3,30.25,West,265,8.0,13.0,20,0.00,,,0.00,707,LWC V2.00 B727,2013-04-21 22:14:00,
2013-04-21 16:19:00,62.3,19.5,30.25,South,190,4.0,7.0,19,0.00,,,0.00,691,LWC V2.00 B727,2013-04-21 22:19:00,
2013-04-21 16:24:00,62.5,23.1,30.25,NNE,15,6.0,6.0,22,0.00,,,0.00,671,LWC V2.00 B727,2013-04-21 22:24:00,
2013-04-21 16:29:00,62.7,21.1,30.25,SSW,209,4.0,10.0,20,0.00,,,0.00,656,LWC V2.00 B727,2013-04-21 22:29:00,
2013-04-21 16:34:00,62.6,22.1,30.25,SW,236,7.0,9.0,21,0.00,,,0.00,640,LWC V2.00 B727,2013-04-21 22:34:00,
2013-04-21 16:39:00,62.6,19.8,30.25,NNE,13,5.0,12.0,19,0.00,,,0.00,629,LWC V2.00 B727,2013-04-21 22:39:00,
2013-04-21 16:44:00,62.1,19.4,30.24,NNE,16,6.0,11.0,19,0.00,,,0.00,612,LWC V2.00 B727,2013-04-21 22:44:00,
2013-04-21 16:49:00,62.0,19.3,30.25,NW,315,11.0,11.0,19,0.00,,,0.00,589,LWC V2.00 B727,2013-04-21 22:49:00,
2013-04-21 16:54:00,61.8,21.5,30.25,WSW,248,4.0,12.0,21,0.00,,,0.00,578,LWC V2.00 B727,2013-04-21 22:54:00,
2013-04-21 16:59:00,61.7,19.0,30.25,SW,221,5.0,8.0,19,0.00,,,0.00,547,LWC V2.00 B727,2013-04-21 22:59:00,
2013-04-21 17:04:00,61.6,19.0,30.25,SW,230,4.0,12.0,19,0.00,,,0.00,527,LWC V2.00 B727,2013-04-21 23:04:00,
2013-04-21 17:09:00,61.6,19.0,30.24,NNE,22,4.0,8.0,19,0.00,,,0.00,512,LWC V2.00 B727,2013-04-21 23:09:00,
2013-04-21 17:14:00,61.2,18.6,30.24,SW,233,3.0,9.0,19,0.00,,,0.00,494,LWC V2.00 B727,2013-04-21 23:14:00,
2013-04-21 17:19:00,60.9,17.1,30.24,NNW,329,7.0,10.0,18,0.00,,,0.00,473,LWC V2.00 B727,2013-04-21 23:19:00,
2013-04-21 17:24:00,60.4,19.2,30.24,SSW,202,4.0,7.0,20,0.00,,,0.00,454,LWC V2.00 B727,2013-04-21 23:24:00,
2013-04-21 17:29:00,60.3,17.9,30.24,WNW,284,11.0,12.0,19,0.00,,,0.00,434,LWC V2.00 B727,2013-04-21 23:29:00,
2013-04-21 17:34:00,60.2,17.8,30.24,NE,35,8.0,8.0,19,0.00,,,0.00,413,LWC V2.00 B727,2013-04-21 23:34:00,
2013-04-21 17:39:00,59.7,17.4,30.24,WSW,244,5.0,7.0,19,0.00,,,0.00,392,LWC V2.00 B727,2013-04-21 23:39:00,
2013-04-21 17:44:00,59.7,17.4,30.24,WSW,244,9.0,9.0,19,0.00,,,0.00,376,LWC V2.00 B727,2013-04-21 23:44:00,
2013-04-21 17:49:00,59.4,17.1,30.23,North,350,1.0,12.0,19,0.00,,,0.00,357,LWC V2.00 B727,2013-04-21 23:49:00,
2013-04-21 17:54:00,59.0,16.8,30.23,NW,306,9.0,11.0,19,0.00,,,0.00,338,LWC V2.00 B727,2013-04-21 23:54:00,
2013-04-21 17:59:00,59.0,18.0,30.24,WSW,258,2.0,8.0,20,0.00,,,0.00,318,LWC V2.00 B727,2013-04-21 23:59:00,
2013-04-21 18:04:00,59.0,19.1,30.24,NNW,338,17.0,17.0,21,0.00,,,0.00,297,LWC V2.00 B727,2013-04-22 00:04:00,
2013-04-21 18:09:00,59.0,18.0,30.23,North,5,7.0,11.0,20,0.00,,,0.00,274,LWC V2.00 B727,2013-04-22 00:09:00,
2013-04-21 18:14:00,58.6,16.5,30.23,WSW,246,4.0,12.0,19,0.00,,,0.00,255,LWC V2.00 B727,2013-04-22 00:14:00,
2013-04-21 18:19:00,58.0,17.2,30.24,SW,226,3.0,6.0,20,0.00,,,0.00,234,LWC V2.00 B727,2013-04-22 00:19:00,
2013-04-21 18:24:00,57.7,15.7,30.24,East,98,1.0,18.0,19,0.00,,,0.00,42,LWC V2.00 B727,2013-04-22 00:24:00,
2013-04-21 18:29:00,57.3,16.6,30.24,WNW,283,2.0,3.0,20,0.00,,,0.00,37,LWC V2.00 B727,2013-04-22 00:29:00,
2013-04-21 18:34:00,57.0,16.3,30.24,SW,225,2.0,12.0,20,0.00,,,0.00,35,LWC V2.00 B727,2013-04-22 00:34:00,
2013-04-21 18:39:00,56.7,16.1,30.24,North,355,3.0,6.0,20,0.00,,,0.00,33,LWC V2.00 B727,2013-04-22 00:39:00,
2013-04-21 18:44:00,56.1,15.6,30.24,NNE,24,8.0,14.0,20,0.00,,,0.00,32,LWC V2.00 B727,2013-04-22 00:44:00,
2013-04-21 18:49:00,55.7,14.1,30.24,NNE,20,8.0,14.0,19,0.00,,,0.00,30,LWC V2.00 B727,2013-04-22 00:49:00,
2013-04-21 18:54:00,55.3,14.9,30.25,NNW,344,3.0,7.0,20,0.00,,,0.00,28,LWC V2.00 B727,2013-04-22 00:54:00,
2013-04-21 18:59:00,55.1,14.8,30.25,WSW,240,7.0,7.0,20,0.00,,,0.00,28,LWC V2.00 B727,2013-04-22 00:59:00,
2013-04-21 19:04:00,54.8,14.5,30.25,NW,317,4.0,7.0,20,0.00,,,0.00,25,LWC V2.00 B727,2013-04-22 01:04:00,
2013-04-21 19:09:00,54.5,14.3,30.25,NNW,336,0.0,2.0,20,0.00,,,0.00,23,LWC V2.00 B727,2013-04-22 01:09:00,
2013-04-21 19:14:00,54.2,14.0,30.25,North,351,2.0,7.0,20,0.00,,,0.00,19,LWC V2.00 B727,2013-04-22 01:14:00,
2013-04-21 19:19:00,53.9,13.8,30.25,SSW,213,1.0,4.0,20,0.00,,,0.00,18,LWC V2.00 B727,2013-04-22 01:19:00,
2013-04-21 19:24:00,53.5,13.4,30.25,North,355,5.0,8.0,20,0.00,,,0.00,14,LWC V2.00 B727,2013-04-22 01:24:00,
2013-04-21 19:29:00,53.2,13.2,30.26,West,267,2.0,5.0,20,0.00,,,0.00,12,LWC V2.00 B727,2013-04-22 01:29:00,
2013-04-21 19:34:00,52.8,12.9,30.26,WSW,238,0.0,10.0,20,0.00,,,0.00,9,LWC V2.00 B727,2013-04-22 01:34:00,
2013-04-21 19:39:00,52.5,12.6,30.26,SW,217,0.0,4.0,20,0.00,,,0.00,5,LWC V2.00 B727,2013-04-22 01:39:00,
2013-04-21 19:44:00,52.2,12.4,30.26,ESE,111,2.0,2.0,20,0.00,,,0.00,0,LWC V2.00 B727,2013-04-22 01:44:00,
2013-04-21 19:49:00,51.9,12.1,30.27,SW,233,5.0,7.0,20,0.00,,,0.00,0,LWC V2.00 B727,2013-04-22 01:49:00,
2013-04-21 19:54:00,51.7,13.0,30.27,WSW,240,4.0,9.0,21,0.00,,,0.00,0,LWC V2.00 B727,2013-04-22 01:54:00,
2013-04-21 19:59:00,51.4,12.8,30.27,SW,230,1.0,8.0,21,0.00,,,0.00,0,LWC V2.00 B727,2013-04-22 01:59:00,
2013-04-21 20:04:00,51.1,12.5,30.28,SW,220,6.0,7.0,21,0.00,,,0.00,0,LWC V2.00 B727,2013-04-22 02:04:00,
2013-04-21 20:09:00,50.8,13.3,30.28,West,263,7.0,8.0,22,0.00,,,0.00,0,LWC V2.00 B727,2013-04-22 02:09:00,
2013-04-21 20:14:00,50.5,13.1,30.28,SW,217,1.0,7.0,22,0.00,,,0.00,0,LWC V2.00 B727,2013-04-22 02:14:00,
2013-04-21 20:19:00,50.4,13.0,30.28,WSW,242,2.0,9.0,22,0.00,,,0.00,0,LWC V2.00 B727,2013-04-22 02:19:00,
2013-04-21 20:24:00,50.2,13.9,30.28,SW,231,1.0,4.0,23,0.00,,,0.00,0,LWC V2.00 B727,2013-04-22 02:24:00,
2013-04-21 20:29:00,50.1,13.8,30.28,SSW,212,6.0,6.0,23,0.00,,,0.00,0,LWC V2.00 B727,2013-04-22 02:29:00,
2013-04-21 20:34:00,49.9,13.6,30.28,SW,226,0.0,2.0,23,0.00,,,0.00,0,LWC V2.00 B727,2013-04-22 02:34:00,
2013-04-21 20:39:00,49.7,13.4,30.29,SW,227,3.0,3.0,23,0.00,,,0.00,0,LWC V2.00 B727,2013-04-22 02:39:00,
2013-04-21 20:44:00,49.5,14.2,30.29,SW,226,0.0,1.0,24,0.00,,,0.00,0,LWC V2.00 B727,2013-04-22 02:44:00,
2013-04-21 20:49:00,49.0,13.8,30.29,SW,226,0.0,1.0,24,0.00,,,0.00,0,LWC V2.00 B727,2013-04-22 02:49:00,
2013-04-21 20:54:00,48.3,13.2,30.29,SW,226,0.0,1.0,24,0.00,,,0.00,0,LWC V2.00 B727,2013-04-22 02:54:00,
2013-04-21 20:59:00,47.6,14.4,30.29,SW,226,1.0,1.0,26,0.00,,,0.00,0,LWC V2.00 B727,2013-04-22 02:59:00,
2013-04-21 21:04:00,46.3,14.2,30.30,SSW,196,3.0,3.0,27,0.00,,,0.00,0,LWC V2.00 B727,2013-04-22 03:04:00,
2013-04-21 21:09:00,45.5,14.3,30.30,South,190,0.0,2.0,28,0.00,,,0.00,0,LWC V2.00 B727,2013-04-22 03:09:00,
2013-04-21 21:14:00,45.4,13.4,30.30,SSW,199,4.0,4.0,27,0.00,,,0.00,0,LWC V2.00 B727,2013-04-22 03:14:00,
2013-04-21 21:19:00,45.2,14.9,30.30,SSW,196,2.0,2.0,29,0.00,,,0.00,0,LWC V2.00 B727,2013-04-22 03:19:00,
2013-04-21 21:24:00,44.4,14.9,30.30,South,179,2.0,2.0,30,0.00,,,0.00,0,LWC V2.00 B727,2013-04-22 03:24:00,
2013-04-21 21:29:00,43.8,15.2,30.30,South,179,0.0,3.0,31,0.00,,,0.00,0,LWC V2.00 B727,2013-04-22 03:29:00,
2013-04-21 21:34:00,43.1,14.5,30.30,SSE,158,1.0,2.0,31,0.00,,,0.00,0,LWC V2.00 B727,2013-04-22 03:34:00,
2013-04-21 21:39:00,42.6,15.5,30.30,SSE,161,3.0,4.0,33,0.00,,,0.00,0,LWC V2.00 B727,2013-04-22 03:39:00,
2013-04-21 21:44:00,42.0,15.0,30.30,SSE,164,3.0,4.0,33,0.00,,,0.00,0,LWC V2.00 B727,2013-04-22 03:44:00,
2013-04-21 21:49:00,41.6,15.3,30.30,SSE,154,3.0,4.0,34,0.00,,,0.00,0,LWC V2.00 B727,2013-04-22 03:49:00,
2013-04-21 21:54:00,41.2,15.0,30.30,SSE,167,4.0,4.0,34,0.00,,,0.00,0,LWC V2.00 B727,2013-04-22 03:54:00,
2013-04-21 21:59:00,41.0,14.8,30.31,SSE,157,2.0,3.0,34,0.00,,,0.00,0,LWC V2.00 B727,2013-04-22 03:59:00,
2013-04-21 22:01:00,40.9,15.4,30.31,SSE,150,0.0,4.0,35,0.00,,,0.00,0,LWC V2.00 B727,2013-04-22 04:01:00,
2013-04-21 22:06:00,40.7,15.2,30.31,SSE,155,2.0,3.0,35,0.00,,,0.00,0,LWC V2.00 B727,2013-04-22 04:06:00,
2013-04-21 22:11:00,40.5,15.7,30.31,SSE,155,1.0,3.0,36,0.00,,,0.00,0,LWC V2.00 B727,2013-04-22 04:11:00,
2013-04-21 22:16:00,40.2,15.4,30.32,SSE,153,1.0,3.0,36,0.00,,,0.00,0,LWC V2.00 B727,2013-04-22 04:16:00,
2013-04-21 22:21:00,40.1,15.3,30.32,SSE,154,1.0,3.0,36,0.00,,,0.00,0,LWC V2.00 B727,2013-04-22 04:21:00,
2013-04-21 22:26:00,40.0,15.9,30.32,SSE,155,2.0,2.0,37,0.00,,,0.00,0,LWC V2.00 B727,2013-04-22 04:26:00,
2013-04-21 22:31:00,39.8,15.7,30.32,SSE,155,1.0,3.0,37,0.00,,,0.00,0,LWC V2.00 B727,2013-04-22 04:31:00,
2013-04-21 22:36:00,39.5,16.0,30.32,SSE,155,1.0,2.0,38,0.00,,,0.00,0,LWC V2.00 B727,2013-04-22 04:36:00,
2013-04-21 22:41:00,39.3,15.8,30.32,SSE,155,0.0,1.0,38,0.00,,,0.00,0,LWC V2.00 B727,2013-04-22 04:41:00,
2013-04-21 22:46:00,39.1,16.3,30.32,SSE,156,0.0,4.0,39,0.00,,,0.00,0,LWC V2.00 B727,2013-04-22 04:46:00,
2013-04-21 22:51:00,39.0,15.6,30.31,SSE,156,1.0,2.0,38,0.00,,,0.00,0,LWC V2.00 B727,2013-04-22 04:51:00,
2013-04-21 22:56:00,39.1,15.7,30.31,SSE,159,1.0,3.0,38,0.00,,,0.00,0,LWC V2.00 B727,2013-04-22 04:56:00,
2013-04-21 23:01:00,39.1,16.3,30.31,SSE,159,1.0,4.0,39,0.00,,,0.00,0,LWC V2.00 B727,2013-04-22 05:01:00,
2013-04-21 23:06:00,38.9,16.1,30.31,SSE,159,0.0,3.0,39,0.00,,,0.00,0,LWC V2.00 B727,2013-04-22 05:06:00,
2013-04-21 23:11:00,38.9,16.1,30.31,SSE,162,1.0,4.0,39,0.00,,,0.00,0,LWC V2.00 B727,2013-04-22 05:11:00,
2013-04-21 23:16:00,38.7,16.5,30.30,SSE,161,2.0,2.0,40,0.00,,,0.00,0,LWC V2.00 B727,2013-04-22 05:16:00,
2013-04-21 23:21:00,38.5,16.9,30.30,SSE,162,0.0,2.0,41,0.00,,,0.00,0,LWC V2.00 B727,2013-04-22 05:21:00,
2013-04-21 23:26:00,38.3,16.1,30.30,SSE,161,0.0,2.0,40,0.00,,,0.00,0,LWC V2.00 B727,2013-04-22 05:26:00,
2013-04-21 23:31:00,38.5,16.3,30.30,SSE,163,2.0,3.0,40,0.00,,,0.00,0,LWC V2.00 B727,2013-04-22 05:31:00,
2013-04-21 23:36:00,39.3,15.8,30.29,SSW,194,2.0,4.0,38,0.00,,,0.00,0,LWC V2.00 B727,2013-04-22 05:36:00,
2013-04-21 23:41:00,40.0,16.5,30.29,SSW,194,2.0,3.0,38,0.00,,,0.00,0,LWC V2.00 B727,2013-04-22 05:41:00,
2013-04-21 23:46:00,40.3,17.3,30.29,South,191,2.0,3.0,39,0.00,,,0.00,0,LWC V2.00 B727,2013-04-22 05:46:00,
2013-04-21 23:51:00,40.0,17.6,30.29,South,190,2.0,2.0,40,0.00,,,0.00,0,LWC V2.00 B727,2013-04-22 05:51:00,
2013-04-21 23:56:00,39.7,17.4,30.29,South,190,0.0,1.0,40,0.00,,,0.00,0,LWC V2.00 B727,2013-04-22 05:56:00,